createdAt,value
2023-02-22T00:02:25.487Z,98254.56
2023-02-22T00:04:58.065Z,98256.20
2023-02-22T00:07:30.314Z,98256.17
2023-02-22T00:10:02.697Z,98261.11
2023-02-22T00:12:35.561Z,98258.52
2023-02-22T00:15:14.371Z,98255.44
2023-02-22T00:17:46.806Z,98256.77
2023-02-22T00:20:20.663Z,98258.77
2023-02-22T00:22:53.510Z,98255.95
2023-02-22T00:25:26.845Z,98258.94
2023-02-22T00:27:59.207Z,98264.54
2023-02-22T00:30:33.843Z,98264.81
2023-02-22T00:33:07.204Z,98262.73
2023-02-22T00:35:39.758Z,98262.02
2023-02-22T00:38:12.797Z,98268.58
2023-02-22T00:40:50.860Z,98271.31
2023-02-22T00:43:27.032Z,98275.02
2023-02-22T00:46:06.843Z,98272.95
2023-02-22T00:48:47.784Z,98274.84
2023-02-22T00:51:23.229Z,98275.98
2023-02-22T00:53:58.487Z,98278.23
2023-02-22T00:56:40.001Z,98278.73
2023-02-22T00:59:12.552Z,98276.95
2023-02-22T01:01:47.109Z,98279.36
2023-02-22T01:04:19.594Z,98277.11
2023-02-22T01:06:51.974Z,98280.05
2023-02-22T01:09:24.654Z,98278.48
2023-02-22T01:11:58.277Z,98281.82
2023-02-22T01:14:31.311Z,98282.39
2023-02-22T01:17:07.037Z,98280.42
2023-02-22T01:19:42.603Z,98281.45
2023-02-22T01:22:15.331Z,98280.02
2023-02-22T01:24:53.449Z,98281.56
2023-02-22T01:27:28.195Z,98280.77
2023-02-22T01:30:00.789Z,98277.58
2023-02-22T01:32:41.583Z,98279.89
2023-02-22T01:35:20.745Z,98278.42
2023-02-22T01:37:53.062Z,98278.38
2023-02-22T01:40:28.354Z,98282.83
2023-02-22T01:43:03.186Z,98284.98
2023-02-22T01:45:50.994Z,98284.56
2023-02-22T01:48:35.782Z,98283.64
2023-02-22T01:51:16.133Z,98286.58
2023-02-22T01:53:55.305Z,98287.73
2023-02-22T01:56:31.488Z,98285.63
2023-02-22T01:59:09.964Z,98286.02
2023-02-22T02:01:45.613Z,98281.85
2023-02-22T02:04:25.680Z,98282.59
2023-02-22T02:07:04.503Z,98287.07
2023-02-22T02:09:46.085Z,98285.13
2023-02-22T02:12:23.739Z,98282.99
2023-02-22T02:15:17.614Z,98283.27
2023-02-22T02:17:56.674Z,98286.54
2023-02-22T02:20:37.491Z,98286.05
2023-02-22T02:23:30.082Z,98285.91
2023-02-22T02:26:32.418Z,98288.40
2023-02-22T02:29:32.042Z,98289.18
2023-02-22T02:32:27.772Z,98282.39
2023-02-22T02:35:05.657Z,98278.48
2023-02-22T02:37:51.178Z,98280.17
2023-02-22T02:40:28.343Z,98280.48
2023-02-22T02:43:08.260Z,98282.95
2023-02-22T02:45:48.978Z,98281.52
2023-02-22T02:48:26.916Z,98282.54
2023-02-22T02:51:02.261Z,98284.91
2023-02-22T02:53:39.591Z,98278.10
2023-02-22T02:56:11.880Z,98282.69
2023-02-22T02:58:50.308Z,98277.23
2023-02-22T03:01:45.144Z,98283.31
2023-02-22T03:04:29.287Z,98286.88
2023-02-22T03:07:18.457Z,98289.14
2023-02-22T03:10:04.257Z,98285.13
2023-02-22T03:12:46.943Z,98285.04
2023-02-22T03:15:35.150Z,98288.95
2023-02-22T03:18:23.007Z,98291.90
2023-02-22T03:21:11.951Z,98294.71
2023-02-22T03:23:49.949Z,98294.30
2023-02-22T03:26:26.340Z,98292.48
2023-02-22T03:29:05.372Z,98296.34
2023-02-22T03:31:42.705Z,98299.20
2023-02-22T03:34:20.470Z,98299.80
2023-02-22T03:37:02.215Z,98299.50
2023-02-22T03:39:37.659Z,98300.78
2023-02-22T03:42:16.933Z,98305.01
2023-02-22T03:44:53.495Z,98305.48
2023-02-22T03:47:31.888Z,98303.27
2023-02-22T03:50:10.716Z,98303.85
2023-02-22T03:52:44.226Z,98301.61
2023-02-22T03:55:21.671Z,98306.63
2023-02-22T03:57:57.801Z,98303.60
2023-02-22T04:00:34.097Z,98301.90
2023-02-22T04:03:08.854Z,98299.63
2023-02-22T04:05:41.305Z,98301.74
2023-02-22T04:08:14.340Z,98301.55
2023-02-22T04:10:46.973Z,98304.44
2023-02-22T04:13:21.675Z,98304.32
2023-02-22T04:15:59.948Z,98303.02
2023-02-22T04:18:34.819Z,98307.67
2023-02-22T04:21:09.199Z,98305.70
2023-02-22T04:23:45.988Z,98308.08
2023-02-22T04:26:32.144Z,98305.20
2023-02-22T04:29:10.363Z,98303.23
2023-02-22T04:31:45.203Z,98308.06
2023-02-22T04:34:20.685Z,98310.63
2023-02-22T04:36:54.357Z,98308.04
2023-02-22T04:39:27.320Z,98304.50
2023-02-22T04:41:59.822Z,98304.51
2023-02-22T04:44:32.198Z,98304.30
2023-02-22T04:47:04.695Z,98304.16
2023-02-22T04:49:39.307Z,98307.09
2023-02-22T04:52:11.946Z,98309.35
2023-02-22T04:54:45.578Z,98302.55
2023-02-22T04:57:17.918Z,98300.50
2023-02-22T04:59:51.255Z,98298.98
2023-02-22T05:02:24.273Z,98299.84
2023-02-22T05:04:56.658Z,98300.61
2023-02-22T05:07:29.086Z,98299.06
2023-02-22T05:10:02.788Z,98302.31
2023-02-22T05:12:36.154Z,98301.87
2023-02-22T05:15:09.804Z,98307.22
2023-02-22T05:17:45.530Z,98313.18
2023-02-22T05:20:27.865Z,98313.56
2023-02-22T05:23:02.058Z,98315.05
2023-02-22T05:25:35.165Z,98314.56
2023-02-22T05:28:13.041Z,98317.63
2023-02-22T05:30:45.547Z,98323.16
2023-02-22T05:33:17.992Z,98322.89
2023-02-22T05:35:50.527Z,98323.04
2023-02-22T05:38:23.694Z,98324.38
2023-02-22T05:40:57.003Z,98328.09
2023-02-22T05:43:29.363Z,98336.20
2023-02-22T05:46:02.566Z,98341.84
2023-02-22T05:48:35.080Z,98342.11
2023-02-22T05:51:11.680Z,98343.21
2023-02-22T05:53:48.278Z,98348.39
2023-02-22T05:56:26.478Z,98349.71
2023-02-22T05:58:59.840Z,98348.88
2023-02-22T06:01:34.547Z,98350.75
2023-02-22T06:04:07.871Z,98353.95
2023-02-22T06:06:40.067Z,98356.73
2023-02-22T06:09:12.330Z,98358.20
2023-02-22T06:11:44.542Z,98362.48
2023-02-22T06:14:16.845Z,98360.44
2023-02-22T06:16:56.475Z,98363.45
2023-02-22T06:19:29.004Z,98366.21
2023-02-22T06:22:03.040Z,98366.64
2023-02-22T06:24:39.387Z,98369.58
2023-02-22T06:27:12.103Z,98372.60
2023-02-22T06:29:47.752Z,98375.23
2023-02-22T06:32:20.115Z,98376.08
2023-02-22T06:34:52.597Z,98379.70
2023-02-22T06:37:25.464Z,98385.41
2023-02-22T06:40:00.756Z,98386.41
2023-02-22T06:42:37.023Z,98387.78
2023-02-22T06:45:10.857Z,98390.90
2023-02-22T06:47:43.867Z,98391.40
2023-02-22T06:50:24.766Z,98386.02
2023-02-22T06:52:55.701Z,98389.10
2023-02-22T06:55:30.567Z,98388.74
2023-02-22T06:58:03.358Z,98389.27
2023-02-22T07:00:35.902Z,98393.05
2023-02-22T07:03:08.272Z,98400.98
2023-02-22T07:05:40.886Z,98405.21
2023-02-22T07:08:13.757Z,98402.36
2023-02-22T07:10:46.042Z,98403.02
2023-02-22T07:13:18.395Z,98408.42
2023-02-22T07:15:53.299Z,98407.55
2023-02-22T07:18:25.878Z,98407.86
2023-02-22T07:20:58.664Z,98409.27
2023-02-22T07:23:30.945Z,98407.52
2023-02-22T07:26:05.359Z,98408.34
2023-02-22T07:28:38.127Z,98408.10
2023-02-22T07:31:10.356Z,98411.30
2023-02-22T07:33:42.956Z,98410.14
2023-02-22T07:36:17.998Z,98409.16
2023-02-22T07:38:50.405Z,98408.77
2023-02-22T07:41:22.960Z,98404.54
2023-02-22T07:43:57.478Z,98406.05
2023-02-22T07:46:29.913Z,98404.92
2023-02-22T07:49:02.646Z,98406.20
2023-02-22T07:51:34.828Z,98401.73
2023-02-22T07:54:07.386Z,98396.74
2023-02-22T07:56:45.060Z,98395.97
2023-02-22T07:59:17.633Z,98399.61
2023-02-22T08:01:52.102Z,98399.67
2023-02-22T08:04:24.529Z,98398.29
2023-02-22T08:06:56.710Z,98399.73
2023-02-22T08:09:31.653Z,98402.70
2023-02-22T08:12:04.108Z,98407.65
2023-02-22T08:14:36.405Z,98403.17
2023-02-22T08:17:09.615Z,98404.39
2023-02-22T08:19:42.274Z,98403.15
2023-02-22T08:22:16.980Z,98396.85
2023-02-22T08:24:49.299Z,98396.26
2023-02-22T08:27:26.483Z,98398.30
2023-02-22T08:29:59.276Z,98396.30
2023-02-22T08:32:32.056Z,98394.96
2023-02-22T08:35:05.099Z,98391.73
2023-02-22T08:37:37.299Z,98383.11
2023-02-22T08:40:13.331Z,98383.98
2023-02-22T08:42:47.044Z,98383.05
2023-02-22T08:45:22.131Z,98383.62
2023-02-22T08:47:56.137Z,98377.25
2023-02-22T08:50:33.016Z,98379.77
2023-02-22T08:53:06.509Z,98384.14
2023-02-22T08:55:39.942Z,98380.23
2023-02-22T08:58:14.018Z,98374.33
2023-02-22T09:00:46.574Z,98370.88
2023-02-22T09:03:19.368Z,98371.35
2023-02-22T09:05:51.944Z,98366.48
2023-02-22T09:08:24.401Z,98371.91
2023-02-22T09:10:56.709Z,98379.84
2023-02-22T09:13:28.903Z,98381.76
2023-02-22T09:16:01.549Z,98379.70
2023-02-22T09:18:43.736Z,98378.09
2023-02-22T09:21:18.050Z,98376.34
2023-02-22T09:23:50.916Z,98378.68
2023-02-22T09:26:24.736Z,98376.05
2023-02-22T09:28:57.345Z,98374.77
2023-02-22T09:31:29.990Z,98378.36
2023-02-22T09:34:04.232Z,98377.71
2023-02-22T09:36:36.708Z,98377.27
2023-02-22T09:39:09.484Z,98368.05
2023-02-22T09:41:51.395Z,98363.05
2023-02-22T09:44:30.210Z,98364.98
2023-02-22T09:47:02.667Z,98364.84
2023-02-22T09:49:40.215Z,98365.42
2023-02-22T09:52:19.844Z,98360.25
2023-02-22T09:54:55.619Z,98355.56
2023-02-22T09:57:35.252Z,98360.30
2023-02-22T10:00:16.951Z,98358.17
2023-02-22T10:03:01.773Z,98358.18
2023-02-22T10:05:39.904Z,98347.77
2023-02-22T10:08:16.279Z,98349.48
2023-02-22T10:10:56.280Z,98353.64
2023-02-22T10:13:39.356Z,98357.85
2023-02-22T10:16:18.181Z,98354.36
2023-02-22T10:19:16.799Z,98340.80
2023-02-22T10:22:01.639Z,98333.02
2023-02-22T10:24:45.591Z,98334.83
2023-02-22T10:27:22.240Z,98334.80
2023-02-22T10:30:05.523Z,98336.03
2023-02-22T10:32:48.063Z,98331.69
2023-02-22T10:35:25.735Z,98337.60
2023-02-22T10:38:01.124Z,98336.02
2023-02-22T10:40:34.228Z,98331.85
2023-02-22T10:43:09.117Z,98321.55
2023-02-22T10:45:41.717Z,98322.56
2023-02-22T10:48:21.798Z,98330.88
2023-02-22T10:51:00.238Z,98326.52
2023-02-22T10:53:36.407Z,98300.91
2023-02-22T10:56:21.416Z,98285.56
2023-02-22T10:58:57.642Z,98288.20
2023-02-22T11:01:40.891Z,98289.62
2023-02-22T11:04:17.000Z,98289.77
2023-02-22T11:06:52.214Z,98288.98
2023-02-22T11:09:29.090Z,98276.73
2023-02-22T11:12:12.927Z,98283.05
2023-02-22T11:14:45.097Z,98290.55
2023-02-22T11:17:26.244Z,98271.64
2023-02-22T11:19:58.767Z,98261.73
2023-02-22T11:22:38.786Z,98257.08
2023-02-22T11:25:23.719Z,98246.80
2023-02-22T11:28:00.031Z,98241.59
2023-02-22T11:30:36.865Z,98241.74
2023-02-22T11:33:23.938Z,98243.38
2023-02-22T11:35:59.377Z,98243.33
2023-02-22T11:38:33.525Z,98247.13
2023-02-22T11:41:17.537Z,98250.77
2023-02-22T11:43:51.863Z,98256.91
2023-02-22T11:46:30.318Z,98249.98
2023-02-22T11:49:06.414Z,98246.48
2023-02-22T11:51:58.970Z,98254.95
2023-02-22T11:54:53.762Z,98254.36
2023-02-22T11:57:48.861Z,98245.98
2023-02-22T12:00:29.117Z,98246.38
2023-02-22T12:03:29.609Z,98245.02
2023-02-22T12:06:20.280Z,98236.65
2023-02-22T12:09:04.678Z,98224.36
2023-02-22T12:11:48.237Z,98242.42
2023-02-22T12:14:26.705Z,98247.95
2023-02-22T12:17:20.595Z,98219.95
2023-02-22T12:19:58.830Z,98181.02
2023-02-22T12:22:34.797Z,98140.73
2023-02-22T12:25:19.544Z,98157.36
2023-02-22T12:27:56.980Z,98170.33
2023-02-22T12:30:32.504Z,98167.30
2023-02-22T12:33:13.342Z,98159.21
2023-02-22T12:35:47.083Z,98161.27
2023-02-22T12:38:27.906Z,98158.83
2023-02-22T12:41:09.895Z,98148.23
2023-02-22T12:43:47.703Z,98136.36
2023-02-22T12:46:25.725Z,98118.48
2023-02-22T12:49:06.256Z,98121.66
2023-02-22T12:51:45.280Z,98129.27
2023-02-22T12:54:23.133Z,98138.21
2023-02-22T12:57:00.732Z,98130.96
2023-02-22T12:59:39.236Z,98137.77
2023-02-22T13:02:19.632Z,98149.58
2023-02-22T13:04:52.798Z,98151.23
2023-02-22T13:07:38.864Z,98153.20
2023-02-22T13:10:54.798Z,98154.84
2023-02-22T13:13:36.742Z,98157.89
2023-02-22T13:16:23.177Z,98155.14
2023-02-22T13:19:04.605Z,98160.81
2023-02-22T13:21:47.674Z,98156.02
2023-02-22T13:24:26.236Z,98147.26
2023-02-22T13:27:02.941Z,98144.61
2023-02-22T13:29:39.878Z,98146.70
2023-02-22T13:32:31.052Z,98153.26
2023-02-22T13:35:22.119Z,98145.83
2023-02-22T13:38:30.450Z,98138.07
2023-02-22T13:41:25.485Z,98133.89
2023-02-22T13:44:27.074Z,98124.74
2023-02-22T13:47:34.898Z,98114.91
2023-02-22T13:50:35.732Z,98113.55
2023-02-22T13:53:13.638Z,98103.27
2023-02-22T13:55:54.378Z,98090.49
2023-02-22T13:58:28.709Z,98087.46
2023-02-22T14:01:02.962Z,98085.36
2023-02-22T14:03:41.919Z,98077.64
2023-02-22T14:06:43.115Z,98079.62
2023-02-22T14:09:38.953Z,98052.04
2023-02-22T14:12:11.491Z,98053.45
2023-02-22T14:15:29.075Z,98055.59
2023-02-22T14:18:04.177Z,98049.27
2023-02-22T14:20:38.294Z,98040.23
2023-02-22T14:23:40.986Z,98037.70
2023-02-22T14:26:17.604Z,98024.20
2023-02-22T14:28:57.737Z,98030.01
2023-02-22T14:31:37.492Z,98038.52
2023-02-22T14:34:18.458Z,98035.92
2023-02-22T14:37:01.446Z,98036.58
2023-02-22T14:39:38.463Z,98027.50
2023-02-22T14:42:17.871Z,98020.20
2023-02-22T14:45:00.819Z,98022.50
2023-02-22T14:47:44.232Z,98019.59
2023-02-22T14:50:24.850Z,98016.84
2023-02-22T14:53:16.542Z,98014.52
2023-02-22T14:55:53.236Z,98023.98
2023-02-22T14:58:33.120Z,98024.34
2023-02-22T15:01:31.249Z,98028.79
2023-02-22T15:04:22.833Z,98027.77
2023-02-22T15:06:59.891Z,98026.66
2023-02-22T15:09:37.583Z,98028.29
2023-02-22T15:12:31.404Z,98031.07
2023-02-22T15:15:23.240Z,98032.88
2023-02-22T15:17:59.870Z,98040.84
2023-02-22T15:20:35.798Z,98045.69
2023-02-22T15:23:12.041Z,98049.02
2023-02-22T15:25:51.054Z,98055.17
2023-02-22T15:28:27.292Z,98055.50
2023-02-22T15:31:24.184Z,98057.85
2023-02-22T15:34:00.018Z,98063.02
2023-02-22T15:36:40.239Z,98068.14
2023-02-22T15:39:25.693Z,98069.13
2023-02-22T15:42:09.751Z,98074.25
2023-02-22T15:44:48.949Z,98073.95
2023-02-22T15:47:28.324Z,98079.91
2023-02-22T15:50:25.143Z,98086.45
2023-02-22T15:53:11.811Z,98091.58
2023-02-22T15:56:07.191Z,98094.44
2023-02-22T15:58:47.592Z,98100.85
2023-02-22T16:01:30.336Z,98109.55
2023-02-22T16:04:20.268Z,98116.19
2023-02-22T16:07:02.621Z,98120.67
2023-02-22T16:09:38.510Z,98124.92
2023-02-22T16:12:29.499Z,98138.47
2023-02-22T16:15:15.826Z,98140.21
2023-02-22T16:18:02.162Z,98144.16
2023-02-22T16:20:39.718Z,98151.86
2023-02-22T16:23:29.645Z,98153.25
2023-02-22T16:26:26.609Z,98160.30
2023-02-22T16:29:04.981Z,98169.35
2023-02-22T16:31:41.441Z,98177.41
2023-02-22T16:34:16.652Z,98186.29
2023-02-22T16:36:52.805Z,98194.17
2023-02-22T16:39:36.409Z,98199.98
2023-02-22T16:42:10.611Z,98204.94
2023-02-22T16:44:44.416Z,98207.70
2023-02-22T16:47:21.996Z,98213.39
2023-02-22T16:49:57.231Z,98214.63
2023-02-22T16:52:30.592Z,98222.10
2023-02-22T16:55:03.199Z,98226.33
2023-02-22T16:57:36.032Z,98234.48
2023-02-22T17:00:13.184Z,98237.09
2023-02-22T17:02:48.271Z,98242.52
2023-02-22T17:05:20.844Z,98245.88
2023-02-22T17:07:53.805Z,98250.54
2023-02-22T17:10:35.966Z,98257.35
2023-02-22T17:13:23.812Z,98265.39
2023-02-22T17:16:12.603Z,98271.63
2023-02-22T17:18:55.678Z,98276.98
2023-02-22T17:24:44.440Z,98288.75
2023-02-22T17:27:18.717Z,98299.22
2023-02-22T17:29:53.377Z,98306.16
2023-02-22T17:32:25.697Z,98311.20
2023-02-22T17:35:00.563Z,98316.25
2023-02-22T17:37:33.994Z,98324.52
2023-02-22T17:40:07.003Z,98334.88
2023-02-22T17:42:40.258Z,98341.42
2023-02-22T17:45:15.405Z,98350.19
2023-02-22T17:47:51.238Z,98358.20
2023-02-22T17:50:24.681Z,98364.66
2023-02-22T17:52:57.034Z,98365.86
2023-02-22T17:55:29.558Z,98367.36
2023-02-22T17:58:02.196Z,98367.14
2023-02-22T18:00:39.034Z,98368.77
2023-02-22T18:03:14.229Z,98372.94
2023-02-22T18:05:48.847Z,98377.77
2023-02-22T18:08:23.747Z,98383.31
2023-02-22T18:10:57.500Z,98383.27
2023-02-22T18:13:30.359Z,98386.19
2023-02-22T18:16:05.815Z,98385.30
2023-02-22T18:18:38.584Z,98388.42
2023-02-22T18:21:11.096Z,98390.80
2023-02-22T18:23:44.949Z,98398.66
2023-02-22T18:26:20.158Z,98407.02
2023-02-22T18:28:53.655Z,98410.27
2023-02-22T18:31:26.956Z,98412.03
2023-02-22T18:34:02.227Z,98414.67
2023-02-22T18:36:34.658Z,98419.13
2023-02-22T18:39:11.721Z,98424.16
2023-02-22T18:41:45.905Z,98432.27
2023-02-22T18:44:18.792Z,98439.50
2023-02-22T18:46:51.333Z,98443.70
2023-02-22T18:49:27.126Z,98450.48
2023-02-22T18:51:59.706Z,98451.70
2023-02-22T18:54:32.213Z,98457.02
2023-02-22T18:57:05.568Z,98464.44
2023-02-22T18:59:38.502Z,98469.79
2023-02-22T19:02:17.481Z,98470.23
2023-02-22T19:04:50.105Z,98472.34
2023-02-22T19:07:34.325Z,98464.83
2023-02-22T19:10:07.624Z,98464.02
2023-02-22T19:12:40.316Z,98470.59
2023-02-22T19:15:13.422Z,98471.27
2023-02-22T19:17:48.732Z,98471.02
2023-02-22T19:20:21.384Z,98474.72
2023-02-22T19:22:53.865Z,98478.27
2023-02-22T19:25:29.149Z,98477.59
2023-02-22T19:28:01.672Z,98472.52
2023-02-22T19:30:34.269Z,98479.55
2023-02-22T19:33:07.130Z,98481.34
2023-02-22T19:35:48.181Z,98478.23
2023-02-22T19:38:21.008Z,98476.95
2023-02-22T19:40:55.602Z,98475.75
2023-02-22T19:43:34.594Z,98477.95
2023-02-22T19:46:11.716Z,98478.92
2023-02-22T19:48:44.602Z,98477.32
2023-02-22T19:51:18.588Z,98480.02
2023-02-22T19:53:55.524Z,98483.20
2023-02-22T19:56:31.472Z,98485.23
2023-02-22T19:59:09.651Z,98485.80
2023-02-22T20:01:44.857Z,98488.78
2023-02-22T20:04:23.091Z,98491.08
2023-02-22T20:06:59.079Z,98498.72
2023-02-22T20:09:37.893Z,98497.41
2023-02-22T20:12:12.928Z,98499.57
2023-02-22T20:14:46.460Z,98501.09
2023-02-22T20:17:21.381Z,98502.63
2023-02-22T20:19:59.306Z,98502.67
2023-02-22T20:22:31.751Z,98503.34
2023-02-22T20:25:05.368Z,98504.48
2023-02-22T20:27:38.882Z,98501.11
2023-02-22T20:30:18.158Z,98510.96
2023-02-22T20:32:59.950Z,98509.46
2023-02-22T20:35:34.130Z,98511.61
2023-02-22T20:38:13.937Z,98508.62
2023-02-22T20:40:46.957Z,98506.48
2023-02-22T20:43:23.185Z,98507.13
2023-02-22T20:45:56.393Z,98506.77
2023-02-22T20:48:28.982Z,98506.06
2023-02-22T20:51:08.341Z,98504.29
2023-02-22T20:53:42.108Z,98508.60
2023-02-22T20:56:17.948Z,98510.11
2023-02-22T20:58:50.463Z,98510.58
2023-02-22T21:01:23.897Z,98508.06
2023-02-22T21:04:02.432Z,98502.03
2023-02-22T21:06:35.695Z,98503.69
2023-02-22T21:09:12.840Z,98505.64
2023-02-22T21:11:46.731Z,98506.82
2023-02-22T21:14:20.217Z,98505.41
2023-02-22T21:16:54.040Z,98505.13
2023-02-22T21:19:33.406Z,98504.48
2023-02-22T21:22:08.503Z,98505.24
2023-02-22T21:24:40.901Z,98506.25
2023-02-22T21:27:13.299Z,98504.10
2023-02-22T21:29:45.689Z,98504.39
2023-02-22T21:32:19.319Z,98503.66
2023-02-22T21:34:54.318Z,98502.29
2023-02-22T21:37:26.653Z,98503.95
2023-02-22T21:39:59.273Z,98500.37
2023-02-22T21:42:31.677Z,98498.19
2023-02-22T21:45:14.209Z,98497.34
2023-02-22T21:47:47.510Z,98495.19
2023-02-22T21:50:25.552Z,98492.57
2023-02-22T21:52:58.120Z,98494.52
2023-02-22T21:55:31.089Z,98494.67
2023-02-22T21:58:03.668Z,98489.91
2023-02-22T22:00:39.277Z,98489.51
2023-02-22T22:03:20.591Z,98491.44
2023-02-22T22:05:53.256Z,98492.63
2023-02-22T22:08:27.948Z,98491.18
2023-02-22T22:11:03.542Z,98494.59
2023-02-22T22:13:42.072Z,98490.15
2023-02-22T22:16:16.523Z,98488.21
2023-02-22T22:18:55.706Z,98484.35
2023-02-22T22:21:28.896Z,98484.19
2023-02-22T22:24:06.609Z,98485.02
2023-02-22T22:26:48.555Z,98486.03
2023-02-22T22:29:23.688Z,98486.58
2023-02-22T22:31:56.415Z,98483.75
2023-02-22T22:34:34.118Z,98477.77
2023-02-22T22:37:06.664Z,98473.95
2023-02-22T22:39:42.601Z,98469.11
2023-02-22T22:42:15.507Z,98464.36
2023-02-22T22:44:53.849Z,98468.42
2023-02-22T22:47:30.800Z,98460.33
2023-02-22T22:50:03.327Z,98473.08
2023-02-22T22:52:40.268Z,98470.30
2023-02-22T22:55:13.155Z,98469.04
2023-02-22T22:57:45.523Z,98468.35
2023-02-22T23:00:31.612Z,98468.46
2023-02-22T23:03:05.809Z,98473.79
2023-02-22T23:05:43.496Z,98479.42
2023-02-22T23:08:18.855Z,98473.66
2023-02-22T23:10:51.698Z,98481.13
2023-02-22T23:13:25.595Z,98475.63
2023-02-22T23:15:57.948Z,98474.97
2023-02-22T23:18:36.434Z,98476.38
2023-02-22T23:21:12.960Z,98469.61
2023-02-22T23:23:51.780Z,98464.73
2023-02-22T23:26:28.576Z,98465.73
2023-02-22T23:29:04.770Z,98467.11
2023-02-22T23:31:39.956Z,98463.52
2023-02-22T23:34:12.752Z,98464.21
2023-02-22T23:36:45.358Z,98461.73
2023-02-22T23:39:21.704Z,98466.73
2023-02-22T23:42:01.177Z,98462.95
2023-02-22T23:44:34.208Z,98457.20
2023-02-22T23:47:10.684Z,98458.34
2023-02-22T23:49:46.017Z,98455.80
2023-02-22T23:52:25.038Z,98450.78
2023-02-22T23:55:05.618Z,98452.23
2023-02-22T23:57:42.973Z,98453.63
